Time;durP1;ratioP1;P1;durP2;ratioP2;P2;SDS_P1;SDS_P2;PMS_P1;PMS_P2;Temp;Humidity;BMP_temperature;BMP_pressure;BME280_temperature;BME280_humidity;BME280_pressure;Samples;Min_cycle;Max_cycle;Signal;HPM_P1;HPM_P2
2024/03/11 00:01:33;;;;;;;18.25;12.15;;;11.50;96.20;;;;;;6274099;22;20035;-65
2024/03/11 00:04:19;;;;;;;15.75;10.38;;;11.50;96.30;;;;;;6251474;22;20030;-65
2024/03/11 00:07:08;;;;;;;16.23;12.50;;;11.50;96.30;;;;;;6273995;22;20043;-65
2024/03/11 00:09:54;;;;;;;15.98;11.02;;;11.50;96.40;;;;;;6273535;22;20496;-65
2024/03/11 00:12:53;;;;;;;17.92;10.98;;;11.50;96.40;;;;;;6274096;22;20322;-66
2024/03/11 00:15:39;;;;;;;18.00;11.90;;;11.50;96.50;;;;;;6282376;22;20042;-68
2024/03/11 00:18:25;;;;;;;18.63;11.93;;;11.50;96.50;;;;;;6301562;22;20011;-67
2024/03/11 00:21:11;;;;;;;16.17;10.90;;;11.50;96.60;;;;;;6281914;22;20078;-72
2024/03/11 00:23:58;;;;;;;17.63;10.57;;;11.50;96.60;;;;;;6288504;22;20020;-72
2024/03/11 00:26:45;;;;;;;17.00;11.15;;;11.40;96.60;;;;;;6275232;22;20337;-72
2024/03/11 00:29:31;;;;;;;17.95;11.32;;;11.50;96.70;;;;;;6274678;22;20081;-72
2024/03/11 00:32:17;;;;;;;16.45;10.75;;;11.40;96.70;;;;;;6273727;22;20008;-72
2024/03/11 00:35:09;;;;;;;15.15;10.88;;;11.40;96.80;;;;;;6273533;22;20015;-74
2024/03/11 00:37:55;;;;;;;14.80;9.80;;;11.40;96.80;;;;;;6274273;22;20348;-75
2024/03/11 00:40:41;;;;;;;16.08;10.80;;;11.40;96.90;;;;;;6273825;22;20014;-75
2024/03/11 00:43:27;;;;;;;18.50;12.25;;;11.50;97.00;;;;;;6270894;22;20015;-75
2024/03/11 00:46:13;;;;;;;14.25;10.02;;;11.40;97.10;;;;;;6273427;22;20431;-75
2024/03/11 00:48:59;;;;;;;15.18;11.00;;;11.40;97.10;;;;;;6273371;22;20011;-76
2024/03/11 00:51:45;;;;;;;16.90;11.55;;;11.50;97.20;;;;;;6254245;22;20008;-77
2024/03/11 00:54:31;;;;;;;16.58;11.10;;;11.40;97.20;;;;;;6273513;22;20076;-76
2024/03/11 00:57:18;;;;;;;16.73;10.15;;;11.40;97.40;;;;;;6273432;22;20006;-76
2024/03/11 01:00:05;;;;;;;16.20;11.02;;;11.40;97.30;;;;;;6272579;22;20061;-77
2024/03/11 01:02:52;;;;;;;18.45;10.98;;;11.50;97.40;;;;;;6273463;22;20011;-76
2024/03/11 01:05:39;;;;;;;16.05;10.32;;;11.40;97.40;;;;;;6251054;22;20095;-73
2024/03/11 01:08:26;;;;;;;16.35;11.07;;;11.40;97.60;;;;;;6271914;22;20405;-72
2024/03/11 01:11:13;;;;;;;18.00;10.90;;;11.40;97.50;;;;;;6270540;22;20013;-74
2024/03/11 01:13:59;;;;;;;18.40;10.52;;;11.40;97.60;;;;;;6272737;22;20066;-73
2024/03/11 01:16:46;;;;;;;16.15;10.43;;;11.30;97.70;;;;;;6273593;22;20011;-73
2024/03/11 01:19:32;;;;;;;17.30;10.43;;;11.30;97.70;;;;;;6273145;22;20007;-72
2024/03/11 01:22:18;;;;;;;16.90;10.98;;;11.30;97.80;;;;;;6273225;22;20007;-73
2024/03/11 01:25:05;;;;;;;16.95;10.75;;;11.30;97.90;;;;;;6273290;22;20093;-72
2024/03/11 01:27:53;;;;;;;18.20;11.70;;;11.20;97.90;;;;;;6273290;22;20409;-73
2024/03/11 01:30:39;;;;;;;17.83;11.70;;;11.20;97.90;;;;;;6272085;22;20035;-73
2024/03/11 01:33:25;;;;;;;14.95;10.30;;;11.20;98.00;;;;;;6272763;22;20010;-74
2024/03/11 01:36:11;;;;;;;13.93;10.27;;;11.10;98.00;;;;;;6272932;22;20019;-74
2024/03/11 01:38:57;;;;;;;17.73;10.85;;;11.20;98.10;;;;;;6272453;22;20008;-74
2024/03/11 01:41:43;;;;;;;13.98;9.90;;;11.10;98.10;;;;;;6271918;22;20035;-75
2024/03/11 01:44:31;;;;;;;16.30;10.45;;;11.10;98.20;;;;;;6273418;22;20004;-73
2024/03/11 01:47:19;;;;;;;14.43;9.68;;;11.10;98.30;;;;;;6272338;22;20014;-69
2024/03/11 01:50:09;;;;;;;14.73;10.38;;;11.10;98.40;;;;;;6274376;22;20016;-69
2024/03/11 01:52:56;;;;;;;15.48;9.93;;;11.10;98.40;;;;;;6273570;22;20008;-69
2024/03/11 01:55:43;;;;;;;14.13;10.30;;;11.10;98.50;;;;;;6272370;22;20018;-69
2024/03/11 01:58:36;;;;;;;14.43;10.07;;;11.10;98.50;;;;;;6249663;22;20012;-69
2024/03/11 02:01:23;;;;;;;14.02;10.25;;;11.10;98.60;;;;;;6273942;22;20087;-69
2024/03/11 02:04:09;;;;;;;15.48;10.02;;;11.00;98.60;;;;;;6271138;22;20012;-70
2024/03/11 02:06:55;;;;;;;16.42;10.30;;;11.10;98.70;;;;;;6272233;22;20010;-70
2024/03/11 02:09:42;;;;;;;17.05;10.45;;;11.10;98.80;;;;;;6271893;22;20066;-69
2024/03/11 02:12:28;;;;;;;15.57;9.95;;;11.10;98.80;;;;;;6272804;22;20428;-69
2024/03/11 02:15:17;;;;;;;14.30;9.45;;;11.00;98.80;;;;;;6272928;22;20448;-69
2024/03/11 02:18:05;;;;;;;13.77;9.13;;;11.10;98.90;;;;;;6272058;22;20007;-69
2024/03/11 02:20:51;;;;;;;14.68;10.38;;;11.10;99.00;;;;;;6271153;22;20003;-69
2024/03/11 02:23:37;;;;;;;12.90;9.90;;;11.10;99.00;;;;;;6272925;22;20020;-69
2024/03/11 02:26:23;;;;;;;14.98;9.82;;;11.10;99.10;;;;;;6273076;22;20015;-69
2024/03/11 02:29:09;;;;;;;12.55;9.05;;;11.10;99.10;;;;;;6272438;22;20027;-69
2024/03/11 02:31:55;;;;;;;14.38;9.73;;;11.10;99.20;;;;;;6271903;22;20004;-70
2024/03/11 02:34:41;;;;;;;15.25;9.95;;;11.10;99.20;;;;;;6272155;22;20011;-68
2024/03/11 02:37:27;;;;;;;16.63;11.45;;;11.20;99.30;;;;;;6272956;22;20343;-68
2024/03/11 02:40:17;;;;;;;14.13;10.10;;;11.10;99.30;;;;;;6271229;22;20444;-68
2024/03/11 02:43:03;;;;;;;14.15;10.13;;;11.20;99.30;;;;;;6274392;22;20083;-68
2024/03/11 02:45:49;;;;;;;14.40;10.07;;;11.20;99.30;;;;;;6271156;22;20105;-68
2024/03/11 02:48:37;;;;;;;17.63;11.23;;;11.20;99.40;;;;;;6270144;22;20065;-68
2024/03/11 02:51:23;;;;;;;15.05;9.90;;;11.20;99.40;;;;;;6271394;22;20014;-68
2024/03/11 02:54:09;;;;;;;16.00;10.25;;;11.20;99.40;;;;;;6271721;22;20014;-69
2024/03/11 02:56:55;;;;;;;15.32;10.25;;;11.20;99.40;;;;;;6273381;22;20004;-69
2024/03/11 02:59:42;;;;;;;13.32;10.30;;;11.20;99.40;;;;;;6272207;22;20382;-68
2024/03/11 03:02:27;;;;;;;15.35;10.32;;;11.20;99.40;;;;;;6251142;22;20406;-68
2024/03/11 03:05:14;;;;;;;18.73;10.65;;;11.20;99.40;;;;;;6272728;22;20095;-68
2024/03/11 03:08:00;;;;;;;13.27;9.85;;;11.20;99.50;;;;;;6270586;22;20490;-68
2024/03/11 03:10:46;;;;;;;16.30;10.73;;;11.20;99.50;;;;;;6272274;22;20004;-68
2024/03/11 03:13:32;;;;;;;15.00;9.45;;;11.20;99.60;;;;;;6271448;22;20018;-69
2024/03/11 03:16:19;;;;;;;16.30;11.20;;;11.20;99.60;;;;;;6272978;22;20011;-69
2024/03/11 03:19:06;;;;;;;14.68;10.10;;;11.20;99.60;;;;;;6272002;22;20349;-68
2024/03/11 03:21:52;;;;;;;14.93;10.18;;;11.20;99.60;;;;;;6273936;22;20351;-70
2024/03/11 03:24:38;;;;;;;15.20;9.98;;;11.30;99.60;;;;;;6273110;22;20102;-70
2024/03/11 03:27:25;;;;;;;14.05;10.32;;;11.20;99.60;;;;;;6273816;22;20007;-70
2024/03/11 03:30:12;;;;;;;15.13;10.18;;;11.30;99.90;;;;;;6262184;22;20446;-67
2024/03/11 03:32:58;;;;;;;16.85;9.82;;;11.30;99.70;;;;;;6301189;22;20026;-66
2024/03/11 03:35:44;;;;;;;15.48;10.77;;;11.20;99.70;;;;;;6285874;22;20070;-67
2024/03/11 03:38:30;;;;;;;15.40;10.18;;;11.20;99.80;;;;;;6277082;22;20098;-67
2024/03/11 03:41:16;;;;;;;15.32;10.77;;;11.20;99.80;;;;;;6253461;22;20015;-68
2024/03/11 03:44:03;;;;;;;15.60;10.73;;;11.30;99.80;;;;;;6249885;22;20321;-68
2024/03/11 03:46:49;;;;;;;13.13;8.80;;;11.30;99.80;;;;;;6273296;22;20022;-68
2024/03/11 03:49:35;;;;;;;14.90;9.77;;;11.30;99.90;;;;;;6273778;22;20020;-70
2024/03/11 03:52:22;;;;;;;18.35;10.88;;;11.20;99.90;;;;;;6273802;22;20012;-69
2024/03/11 03:55:11;;;;;;;15.15;10.57;;;11.30;99.90;;;;;;6274635;22;20149;-69
2024/03/11 03:57:58;;;;;;;15.65;10.13;;;11.30;99.90;;;;;;6271859;22;20008;-70
2024/03/11 04:00:44;;;;;;;15.82;9.57;;;11.20;99.90;;;;;;6272290;22;20019;-70
2024/03/11 04:03:30;;;;;;;14.48;10.23;;;11.20;99.90;;;;;;6273634;22;20034;-70
2024/03/11 04:06:16;;;;;;;12.98;9.60;;;11.20;99.90;;;;;;6272696;22;20019;-70
2024/03/11 04:09:02;;;;;;;13.93;10.18;;;11.30;99.90;;;;;;6274153;22;20012;-70
2024/03/11 04:11:48;;;;;;;13.15;9.00;;;11.30;99.90;;;;;;6253372;22;20387;-70
2024/03/11 04:14:36;;;;;;;12.85;8.70;;;11.30;99.90;;;;;;6273110;22;20432;-70
2024/03/11 04:17:22;;;;;;;15.75;10.38;;;11.30;99.90;;;;;;6272985;22;20344;-68
2024/03/11 04:20:13;;;;;;;17.77;10.32;;;11.30;99.90;;;;;;6272845;22;20019;-68
2024/03/11 04:22:59;;;;;;;15.75;10.27;;;11.20;99.90;;;;;;6273285;22;20058;-68
2024/03/11 04:25:45;;;;;;;14.85;9.48;;;11.30;99.90;;;;;;6274824;22;20058;-68
2024/03/11 04:28:31;;;;;;;13.75;9.68;;;11.20;99.90;;;;;;6274044;22;20118;-68
2024/03/11 04:31:17;;;;;;;15.50;10.75;;;11.30;99.90;;;;;;6249829;22;20455;-67
2024/03/11 04:34:05;;;;;;;13.77;9.98;;;11.20;99.90;;;;;;6250681;22;20466;-67
2024/03/11 04:36:51;;;;;;;16.38;11.50;;;11.20;99.90;;;;;;6274578;22;20340;-68
2024/03/11 04:39:37;;;;;;;14.13;10.05;;;11.30;99.90;;;;;;6271671;22;20084;-68
2024/03/11 04:42:23;;;;;;;12.07;9.73;;;11.30;99.90;;;;;;6250806;22;20018;-68
2024/03/11 04:45:09;;;;;;;14.70;10.35;;;11.30;99.90;;;;;;6274256;22;20019;-68
2024/03/11 04:47:58;;;;;;;12.88;9.73;;;11.30;99.90;;;;;;6272502;22;20032;-68
2024/03/11 04:50:44;;;;;;;16.50;9.93;;;11.30;99.90;;;;;;6272789;22;20395;-70
2024/03/11 04:53:30;;;;;;;14.52;10.15;;;11.30;99.90;;;;;;6274875;22;20092;-69
2024/03/11 04:56:16;;;;;;;14.63;10.50;;;11.30;99.90;;;;;;6273710;22;20069;-70
2024/03/11 04:59:04;;;;;;;14.75;10.10;;;11.30;99.90;;;;;;6272764;22;20254;-70
2024/03/11 05:01:50;;;;;;;13.43;9.48;;;11.30;99.90;;;;;;6272703;22;20019;-70
2024/03/11 05:04:36;;;;;;;16.35;11.20;;;11.30;99.90;;;;;;6274453;22;20008;-70
2024/03/11 05:07:22;;;;;;;15.75;10.43;;;11.30;99.90;;;;;;6270299;22;20066;-69
2024/03/11 05:10:08;;;;;;;13.43;9.55;;;11.30;99.90;;;;;;6272191;22;20088;-70
2024/03/11 05:12:54;;;;;;;14.02;9.98;;;11.30;99.90;;;;;;6272081;22;20035;-70
2024/03/11 05:15:44;;;;;;;13.75;9.80;;;11.30;99.90;;;;;;6273533;22;20019;-70
2024/03/11 05:18:31;;;;;;;15.23;10.85;;;11.30;99.90;;;;;;6249249;22;20086;-70
2024/03/11 05:21:17;;;;;;;14.15;9.98;;;11.30;99.90;;;;;;6272651;22;20015;-69
2024/03/11 05:24:03;;;;;;;13.38;9.95;;;11.30;99.90;;;;;;6249871;22;20020;-69
2024/03/11 05:26:50;;;;;;;13.63;9.95;;;11.30;99.90;;;;;;6249135;22;20385;-69
2024/03/11 05:29:36;;;;;;;15.65;10.63;;;11.30;99.90;;;;;;6271461;22;20024;-70
2024/03/11 05:32:22;;;;;;;12.68;10.15;;;11.40;99.90;;;;;;6271955;22;20008;-70
2024/03/11 05:35:08;;;;;;;13.93;10.02;;;11.40;99.90;;;;;;6273656;22;20090;-70
2024/03/11 05:37:55;;;;;;;14.23;9.88;;;11.40;99.90;;;;;;6272793;22;20336;-70
2024/03/11 05:40:43;;;;;;;14.70;10.05;;;11.40;99.90;;;;;;6272629;22;20008;-70
2024/03/11 05:43:29;;;;;;;14.05;9.55;;;11.40;99.90;;;;;;6272256;22;20012;-71
2024/03/11 05:46:15;;;;;;;17.00;9.93;;;11.40;99.90;;;;;;6274493;22;20020;-75
2024/03/11 05:49:01;;;;;;;14.88;9.40;;;11.50;99.90;;;;;;6250563;22;20019;-79
2024/03/11 05:51:47;;;;;;;14.70;9.35;;;11.50;99.90;;;;;;6273926;22;20047;-76
2024/03/11 05:54:33;;;;;;;14.25;9.43;;;11.50;99.90;;;;;;6272456;22;20011;-74
2024/03/11 05:57:25;;;;;;;15.43;10.40;;;11.50;99.90;;;;;;6274120;22;20403;-75
2024/03/11 06:00:15;;;;;;;13.13;9.65;;;11.50;99.90;;;;;;6271707;22;20129;-71
2024/03/11 06:03:01;;;;;;;13.70;9.63;;;11.50;99.90;;;;;;6272390;22;20007;-75
2024/03/11 06:05:48;;;;;;;16.10;9.90;;;11.50;99.90;;;;;;6271302;22;20018;-72
2024/03/11 06:08:34;;;;;;;15.07;10.15;;;11.50;99.90;;;;;;6273114;22;20357;-73
2024/03/11 06:11:20;;;;;;;13.93;9.32;;;11.60;99.90;;;;;;6272311;22;20310;-72
2024/03/11 06:14:12;;;;;;;11.10;8.68;;;11.50;99.90;;;;;;6250571;22;20015;-72
2024/03/11 06:16:58;;;;;;;11.52;9.13;;;11.50;99.90;;;;;;6274928;22;20000;-72
2024/03/11 06:19:44;;;;;;;14.57;9.73;;;11.60;99.90;;;;;;6272111;22;20447;-72
2024/03/11 06:22:30;;;;;;;12.75;9.07;;;11.60;99.90;;;;;;6273575;22;20323;-71
2024/03/11 06:25:20;;;;;;;15.43;11.05;;;11.60;99.90;;;;;;6273440;22;20024;-72
2024/03/11 06:28:06;;;;;;;15.23;10.10;;;11.60;99.90;;;;;;6271124;22;20008;-72
2024/03/11 06:30:53;;;;;;;14.57;8.93;;;11.60;99.90;;;;;;6250911;22;20012;-72
2024/03/11 06:33:40;;;;;;;13.32;9.80;;;11.60;99.90;;;;;;6270702;22;20007;-74
2024/03/11 06:36:29;;;;;;;13.73;10.05;;;11.70;99.90;;;;;;6271820;22;20039;-74
2024/03/11 06:39:16;;;;;;;13.75;10.82;;;11.60;99.90;;;;;;6272431;22;20095;-72
2024/03/11 06:42:03;;;;;;;12.98;9.80;;;11.70;99.90;;;;;;6271966;22;20087;-68
2024/03/11 06:44:49;;;;;;;12.45;9.05;;;11.70;99.90;;;;;;6295405;22;20000;-70
2024/03/11 06:47:35;;;;;;;15.05;9.95;;;11.70;99.90;;;;;;6278600;22;20012;-67
2024/03/11 06:50:21;;;;;;;14.60;10.02;;;11.70;99.90;;;;;;6277955;22;20016;-69
2024/03/11 06:53:08;;;;;;;13.05;9.15;;;11.70;99.90;;;;;;6274162;22;20012;-64
2024/03/11 06:55:54;;;;;;;14.95;9.27;;;11.80;99.90;;;;;;6271007;22;20444;-66
2024/03/11 06:58:40;;;;;;;13.15;9.73;;;11.80;99.90;;;;;;6273327;22;20494;-66
2024/03/11 07:01:29;;;;;;;13.68;9.20;;;11.80;99.90;;;;;;6275208;22;20003;-71
2024/03/11 07:04:17;;;;;;;14.60;9.95;;;11.80;99.90;;;;;;6276655;22;20008;-73
2024/03/11 07:07:06;;;;;;;13.60;9.23;;;11.90;99.90;;;;;;6275618;22;20008;-72
2024/03/11 07:09:52;;;;;;;13.68;9.63;;;11.90;99.90;;;;;;6275229;22;20026;-72
2024/03/11 07:12:42;;;;;;;14.25;9.48;;;11.90;99.90;;;;;;6274321;22;20015;-65
2024/03/11 07:15:28;;;;;;;19.33;10.05;;;11.90;99.90;;;;;;6275654;22;20018;-65
2024/03/11 07:18:17;;;;;;;12.88;9.60;;;11.90;99.90;;;;;;6274769;22;20008;-64
2024/03/11 07:21:05;;;;;;;12.85;9.05;;;12.00;99.90;;;;;;6276409;22;20042;-64
2024/03/11 07:23:53;;;;;;;13.00;9.27;;;12.00;99.90;;;;;;6274724;22;20394;-65
2024/03/11 07:26:39;;;;;;;12.70;9.35;;;12.10;99.90;;;;;;6275854;22;20069;-65
2024/03/11 07:29:25;;;;;;;14.50;9.60;;;12.10;99.90;;;;;;6274766;22;20023;-65
2024/03/11 07:32:14;;;;;;;14.95;9.88;;;12.10;99.90;;;;;;6274928;22;20008;-65
2024/03/11 07:35:02;;;;;;;12.77;9.07;;;12.10;99.90;;;;;;6276054;22;20551;-64
2024/03/11 07:37:48;;;;;;;14.27;9.63;;;12.20;99.90;;;;;;6273417;22;20011;-65
2024/03/11 07:40:35;;;;;;;12.38;9.32;;;12.20;99.90;;;;;;6274312;22;20428;-65
2024/03/11 07:43:21;;;;;;;14.23;9.73;;;12.30;99.90;;;;;;6271539;22;20004;-64
2024/03/11 07:46:08;;;;;;;15.23;10.10;;;12.30;99.90;;;;;;6274485;22;20003;-65
2024/03/11 07:48:54;;;;;;;13.52;10.30;;;12.40;99.90;;;;;;6273923;22;20022;-64
2024/03/11 07:51:40;;;;;;;12.95;9.50;;;12.40;99.90;;;;;;6275206;22;20012;-64
2024/03/11 07:54:26;;;;;;;13.10;9.60;;;12.50;99.90;;;;;;6276431;22;20085;-64
2024/03/11 07:57:12;;;;;;;12.02;9.15;;;12.50;99.90;;;;;;6276748;22;20012;-63
2024/03/11 07:59:59;;;;;;;11.45;8.63;;;12.50;99.90;;;;;;6253534;22;20173;-63
2024/03/11 08:02:47;;;;;;;13.43;9.60;;;12.50;99.90;;;;;;6275104;22;20082;-64
2024/03/11 08:05:34;;;;;;;11.68;8.80;;;12.60;99.90;;;;;;6273922;22;20011;-64
2024/03/11 08:08:20;;;;;;;12.40;9.07;;;12.70;99.90;;;;;;6271407;22;20028;-74
2024/03/11 08:11:06;;;;;;;12.52;9.07;;;12.70;99.90;;;;;;6275116;22;20015;-73
2024/03/11 08:13:52;;;;;;;15.98;9.93;;;12.70;99.90;;;;;;6272953;22;20454;-74
2024/03/11 08:16:39;;;;;;;13.15;9.43;;;12.80;99.90;;;;;;6274916;22;20008;-73
2024/03/11 08:19:25;;;;;;;13.77;9.63;;;12.80;99.90;;;;;;6273262;22;20094;-73
2024/03/11 08:22:14;;;;;;;14.48;9.23;;;12.80;99.90;;;;;;6272716;22;20012;-72
2024/03/11 08:25:00;;;;;;;18.25;10.27;;;12.80;99.90;;;;;;6273383;22;20093;-65
2024/03/11 08:27:48;;;;;;;12.52;8.85;;;12.90;99.90;;;;;;6271727;22;20114;-64
2024/03/11 08:30:34;;;;;;;13.93;9.82;;;12.90;99.90;;;;;;6271317;22;20026;-65
2024/03/11 08:33:20;;;;;;;12.85;9.40;;;13.00;99.90;;;;;;6273912;22;20432;-65
2024/03/11 08:36:06;;;;;;;12.30;9.88;;;13.00;99.90;;;;;;6273970;22;20007;-65
2024/03/11 08:38:52;;;;;;;14.93;9.77;;;13.00;99.90;;;;;;6275633;22;20011;-65
2024/03/11 08:41:38;;;;;;;16.02;9.48;;;13.10;99.90;;;;;;6267233;22;20039;-65
2024/03/11 08:44:25;;;;;;;14.45;10.52;;;13.20;99.90;;;;;;6269255;22;20455;-65
2024/03/11 08:47:12;;;;;;;15.15;10.07;;;13.20;99.90;;;;;;6271354;22;20007;-65
2024/03/11 08:49:59;;;;;;;15.65;10.02;;;13.30;99.90;;;;;;6274190;22;20118;-65
2024/03/11 08:52:48;;;;;;;18.73;12.13;;;13.30;99.90;;;;;;6271775;22;20004;-65
2024/03/11 08:55:34;;;;;;;15.25;11.68;;;13.40;99.90;;;;;;6272790;22;20008;-65
2024/03/11 08:58:20;;;;;;;15.45;10.40;;;13.40;99.90;;;;;;6273864;22;20016;-66
2024/03/11 09:01:06;;;;;;;17.10;11.18;;;13.50;99.90;;;;;;6274014;22;20008;-64
2024/03/11 09:03:52;;;;;;;17.88;12.93;;;13.50;99.90;;;;;;6272393;22;20003;-65
2024/03/11 09:06:38;;;;;;;15.30;11.40;;;13.60;99.80;;;;;;6249261;22;20070;-65
2024/03/11 09:09:25;;;;;;;17.92;12.75;;;13.60;99.70;;;;;;6272234;22;20024;-66
2024/03/11 09:12:11;;;;;;;17.52;12.63;;;13.70;99.60;;;;;;6272763;22;20015;-65
2024/03/11 09:14:57;;;;;;;17.90;12.40;;;13.70;99.50;;;;;;6271495;22;20018;-65
2024/03/11 09:17:46;;;;;;;18.88;13.85;;;13.80;99.40;;;;;;6247745;22;20014;-65
2024/03/11 09:20:31;;;;;;;21.58;14.07;;;13.90;99.30;;;;;;6270715;22;20432;-65
2024/03/11 09:23:17;;;;;;;21.58;15.38;;;13.90;99.20;;;;;;6273624;22;20442;-65
2024/03/11 09:26:04;;;;;;;20.05;15.80;;;13.90;99.10;;;;;;6273269;22;20436;-65
2024/03/11 09:28:50;;;;;;;19.83;15.73;;;14.00;98.80;;;;;;6271766;22;20024;-65
2024/03/11 09:31:36;;;;;;;22.20;14.70;;;14.00;98.70;;;;;;6273234;22;20035;-65
2024/03/11 09:34:22;;;;;;;19.15;14.88;;;14.00;98.60;;;;;;6271793;22;20432;-65
2024/03/11 09:37:09;;;;;;;20.23;15.52;;;14.00;98.50;;;;;;6272260;22;20081;-65
2024/03/11 09:39:56;;;;;;;21.40;16.70;;;14.10;98.40;;;;;;6270813;22;20318;-65
2024/03/11 09:42:43;;;;;;;23.13;15.65;;;14.10;98.30;;;;;;6271453;22;20015;-65
2024/03/11 09:45:29;;;;;;;20.83;15.48;;;14.10;98.20;;;;;;6271381;22;20440;-65
2024/03/11 09:48:17;;;;;;;22.95;16.20;;;14.10;98.10;;;;;;6272836;22;20031;-65
2024/03/11 09:51:07;;;;;;;21.50;16.48;;;14.20;98.00;;;;;;6273174;22;20016;-66
2024/03/11 09:53:59;;;;;;;20.60;16.17;;;14.20;97.90;;;;;;6270938;22;20011;-64
2024/03/11 09:56:47;;;;;;;19.27;14.23;;;14.20;97.80;;;;;;6283676;22;20012;-66
2024/03/11 09:59:41;;;;;;;18.67;15.05;;;14.20;97.80;;;;;;6299266;22;20403;-66
2024/03/11 10:02:31;;;;;;;18.70;14.90;;;14.30;97.80;;;;;;6278037;22;20050;-65
2024/03/11 10:05:19;;;;;;;18.90;16.13;;;14.30;97.60;;;;;;6272220;22;20014;-65
2024/03/11 10:08:05;;;;;;;21.02;16.00;;;14.40;97.50;;;;;;6271989;22;20022;-65
2024/03/11 10:11:11;;;;;;;19.90;15.52;;;14.40;97.40;;;;;;6272286;22;20011;-65
2024/03/11 10:13:57;;;;;;;20.50;15.50;;;14.40;97.30;;;;;;6271390;22;20011;-65
2024/03/11 10:16:43;;;;;;;20.40;15.35;;;14.50;97.30;;;;;;6270860;22;20003;-65
2024/03/11 10:19:45;;;;;;;20.55;15.70;;;14.50;97.20;;;;;;6271544;22;20050;-66
2024/03/11 10:22:34;;;;;;;20.58;14.80;;;14.60;97.20;;;;;;6271182;22;20067;-66
2024/03/11 10:25:27;;;;;;;19.60;15.85;;;14.60;97.10;;;;;;6271861;22;20020;-65
2024/03/11 10:28:31;;;;;;;18.10;14.50;;;14.70;97.10;;;;;;6272311;22;20110;-65
2024/03/11 10:31:27;;;;;;;19.08;14.27;;;14.90;97.00;;;;;;6271603;22;20008;-65
2024/03/11 10:34:24;;;;;;;21.95;14.73;;;15.00;96.80;;;;;;6272765;22;20102;-65
2024/03/11 10:37:09;;;;;;;18.02;13.80;;;15.10;96.70;;;;;;6270962;22;20123;-65
2024/03/11 10:40:03;;;;;;;23.13;13.25;;;15.20;96.50;;;;;;6270020;22;20039;-65
2024/03/11 10:42:53;;;;;;;17.80;13.65;;;15.30;96.30;;;;;;6271497;22;20012;-66
2024/03/11 10:45:41;;;;;;;19.15;13.93;;;15.40;96.10;;;;;;6271724;22;20007;-66
2024/03/11 10:48:30;;;;;;;18.25;13.38;;;15.50;95.90;;;;;;6249097;22;20015;-65
2024/03/11 10:51:22;;;;;;;19.67;14.25;;;15.70;95.60;;;;;;6271700;22;20012;-65
2024/03/11 10:54:12;;;;;;;18.52;13.57;;;15.70;95.40;;;;;;6271098;22;20023;-66
2024/03/11 14:51:40;;;;;;;3.63;2.33;;;16.90;89.30;;;;;;6267665;22;20019;-66
2024/03/11 14:54:26;;;;;;;4.22;2.20;;;16.90;88.90;;;;;;6271099;22;20015;-66
2024/03/11 14:57:12;;;;;;;3.65;1.92;;;17.00;88.70;;;;;;6271650;22;20010;-66
2024/03/11 14:59:58;;;;;;;2.35;1.45;;;17.10;87.90;;;;;;6270889;22;20015;-67
2024/03/11 15:02:44;;;;;;;2.72;1.63;;;17.10;87.50;;;;;;6271767;22;20427;-66
2024/03/11 15:05:35;;;;;;;3.60;1.98;;;17.30;87.40;;;;;;6273281;22;20022;-66
2024/03/11 15:08:21;;;;;;;3.08;1.67;;;17.30;87.30;;;;;;6272637;22;20354;-67
2024/03/11 15:11:16;;;;;;;1.55;1.30;;;17.40;86.50;;;;;;6270813;22;20058;-67
2024/03/11 15:14:03;;;;;;;2.17;1.20;;;17.40;86.00;;;;;;6270734;22;20008;-67
2024/03/11 15:16:55;;;;;;;3.80;1.75;;;17.30;85.80;;;;;;6274710;22;20015;-67
2024/03/11 15:19:41;;;;;;;3.42;1.70;;;17.30;85.60;;;;;;6274862;22;20463;-67
2024/03/11 15:22:29;;;;;;;2.97;1.85;;;17.20;85.30;;;;;;6273953;22;20439;-67
2024/03/11 15:25:17;;;;;;;2.47;2.00;;;17.10;85.10;;;;;;6273176;22;20012;-68
2024/03/11 15:28:03;;;;;;;3.42;1.52;;;17.10;85.30;;;;;;6272877;22;20011;-66
2024/03/11 15:30:53;;;;;;;2.85;1.40;;;17.10;85.40;;;;;;6272829;22;20019;-66
2024/03/11 15:33:41;;;;;;;2.17;1.55;;;17.00;85.20;;;;;;6250469;22;20204;-66
2024/03/11 15:36:28;;;;;;;2.40;1.50;;;17.00;84.80;;;;;;6251387;22;20340;-68
2024/03/11 15:39:18;;;;;;;1.85;1.38;;;17.00;84.60;;;;;;6274013;22;20061;-67
2024/03/11 15:42:06;;;;;;;2.20;1.55;;;16.90;84.60;;;;;;6274374;22;20313;-66
2024/03/11 15:44:53;;;;;;;2.42;1.60;;;16.90;84.50;;;;;;6274611;22;20440;-66
2024/03/11 15:47:39;;;;;;;2.78;1.60;;;16.90;84.60;;;;;;6250654;22;20015;-66
2024/03/11 15:50:26;;;;;;;2.65;1.45;;;16.80;84.60;;;;;;6272570;22;20118;-66
2024/03/11 15:53:15;;;;;;;2.30;1.60;;;16.70;84.50;;;;;;6272234;22;20004;-65
2024/03/11 15:56:01;;;;;;;3.58;1.60;;;16.70;84.60;;;;;;6270795;22;20086;-66
2024/03/11 15:58:47;;;;;;;1.63;1.40;;;16.70;84.50;;;;;;6274486;22;20062;-66
2024/03/11 16:01:33;;;;;;;2.20;1.55;;;16.60;84.30;;;;;;6274434;22;20014;-66
2024/03/11 16:04:21;;;;;;;4.45;1.90;;;16.60;84.30;;;;;;6272753;22;20390;-67
2024/03/11 16:07:09;;;;;;;2.72;1.73;;;16.50;84.20;;;;;;6273107;22;20084;-66
2024/03/11 16:10:11;;;;;;;2.22;1.98;;;16.50;84.40;;;;;;6272546;22;20459;-68
2024/03/11 16:12:58;;;;;;;2.42;1.73;;;16.50;84.90;;;;;;6273362;22;20014;-66
2024/03/11 16:15:44;;;;;;;2.63;2.00;;;16.40;84.40;;;;;;6269561;22;20467;-67
2024/03/11 16:18:29;;;;;;;1.95;1.58;;;16.40;84.40;;;;;;6273387;22;20509;-67
2024/03/11 16:21:17;;;;;;;3.63;1.75;;;16.30;84.60;;;;;;6272188;22;20486;-66
2024/03/11 16:24:03;;;;;;;3.65;1.95;;;16.20;84.80;;;;;;6270908;22;20432;-66
2024/03/11 16:26:49;;;;;;;3.15;1.80;;;16.20;85.00;;;;;;6274354;22;20012;-66
2024/03/11 16:29:35;;;;;;;2.85;1.85;;;16.20;85.10;;;;;;6273859;22;20107;-66
2024/03/11 16:32:23;;;;;;;2.95;1.85;;;16.10;85.10;;;;;;6284855;22;20008;-67
2024/03/11 16:35:11;;;;;;;2.58;2.00;;;16.00;85.10;;;;;;6287262;22;20063;-66
2024/03/11 16:37:58;;;;;;;5.00;1.75;;;16.00;85.20;;;;;;6272855;22;20342;-67
2024/03/11 16:40:45;;;;;;;3.25;2.20;;;16.00;85.30;;;;;;6274024;22;20099;-67
2024/03/11 16:43:31;;;;;;;3.20;2.45;;;15.90;85.40;;;;;;6274421;22;20065;-67
2024/03/11 16:46:16;;;;;;;6.38;2.40;;;15.80;85.40;;;;;;6274296;22;20433;-66
2024/03/11 16:49:02;;;;;;;4.95;3.03;;;15.80;85.50;;;;;;6274051;22;20020;-66
2024/03/11 16:51:48;;;;;;;5.07;3.05;;;15.70;85.60;;;;;;6273344;22;20024;-66
2024/03/11 16:54:36;;;;;;;4.63;2.40;;;15.60;85.60;;;;;;6271262;22;20590;-67
2024/03/11 16:57:23;;;;;;;5.05;2.80;;;15.50;85.90;;;;;;6274806;22;20018;-67
2024/03/11 17:00:14;;;;;;;3.55;2.17;;;15.50;86.10;;;;;;6249502;22;20008;-67
2024/03/11 17:03:02;;;;;;;3.15;2.00;;;15.40;86.30;;;;;;6247199;22;20012;-66
2024/03/11 17:05:48;;;;;;;4.45;2.58;;;15.30;86.40;;;;;;6269932;22;20310;-67
2024/03/11 17:08:34;;;;;;;5.43;2.40;;;15.30;86.60;;;;;;6271853;22;20448;-67
2024/03/11 17:11:20;;;;;;;4.45;2.65;;;15.20;86.60;;;;;;6271691;22;20082;-66
2024/03/11 17:14:09;;;;;;;6.53;2.55;;;15.10;86.70;;;;;;6272786;22;20012;-66
2024/03/11 17:16:55;;;;;;;3.70;2.58;;;15.10;86.90;;;;;;6244630;22;20024;-66
2024/03/11 17:19:41;;;;;;;8.02;4.28;;;15.10;87.10;;;;;;6275435;22;20393;-67
2024/03/11 17:22:30;;;;;;;8.65;4.75;;;15.00;87.20;;;;;;6271942;22;20007;-68
2024/03/11 17:25:21;;;;;;;7.05;4.60;;;14.90;87.30;;;;;;6248954;22;20008;-66
2024/03/11 17:28:10;;;;;;;7.70;4.60;;;14.90;87.40;;;;;;6272969;22;20077;-66
2024/03/11 17:30:58;;;;;;;8.25;4.55;;;14.80;87.40;;;;;;6271809;22;20015;-66
2024/03/11 17:33:47;;;;;;;6.47;4.30;;;14.80;87.50;;;;;;6271877;22;20011;-66
2024/03/11 17:36:33;;;;;;;6.97;4.88;;;14.80;87.60;;;;;;6272676;22;20316;-66
2024/03/11 17:39:19;;;;;;;6.45;4.90;;;14.80;87.60;;;;;;6273293;22;20424;-67
2024/03/11 17:42:05;;;;;;;7.80;4.80;;;14.80;87.70;;;;;;6273279;22;20003;-67
2024/03/11 17:44:51;;;;;;;6.95;4.53;;;14.80;87.70;;;;;;6270804;22;20015;-66
2024/03/11 17:47:41;;;;;;;7.20;5.22;;;14.70;87.80;;;;;;6273180;22;20039;-67
2024/03/11 17:50:29;;;;;;;6.22;4.35;;;14.70;87.90;;;;;;6249782;22;20073;-67
2024/03/11 17:53:16;;;;;;;7.32;4.97;;;14.70;88.00;;;;;;6272179;22;20040;-66
2024/03/11 17:56:04;;;;;;;6.50;4.63;;;14.70;88.00;;;;;;6271063;22;20004;-66
2024/03/11 17:58:50;;;;;;;6.35;4.38;;;14.70;88.00;;;;;;6272337;22;20019;-66
2024/03/11 18:01:38;;;;;;;6.85;4.40;;;14.60;88.10;;;;;;6271339;22;20007;-66
2024/03/11 18:04:24;;;;;;;5.95;3.65;;;14.50;88.10;;;;;;6271420;22;20118;-66
2024/03/11 18:07:10;;;;;;;8.00;4.03;;;14.50;88.20;;;;;;6272204;22;20007;-66
2024/03/11 18:09:56;;;;;;;7.53;3.70;;;14.50;88.30;;;;;;6249423;22;20055;-67
2024/03/11 18:12:43;;;;;;;7.78;5.18;;;14.40;88.40;;;;;;6271910;22;20086;-68